Time;durP1;ratioP1;P1;durP2;ratioP2;P2;SDS_P1;SDS_P2;PMS_P1;PMS_P2;Temp;Humidity;BMP_temperature;BMP_pressure;BME280_temperature;BME280_humidity;BME280_pressure;Samples;Min_cycle;Max_cycle;Signal;HPM_P1;HPM_P2
2020/12/01 00:00:23;;;;;;;52.07;26.50;;;0.60;99.90;;;;;;5077948;28;20204;-70
2020/12/01 00:02:50;;;;;;;41.80;23.10;;;0.60;99.90;;;;;;5085077;28;20208;-70
2020/12/01 00:05:18;;;;;;;49.50;25.97;;;0.70;99.90;;;;;;5085027;28;20237;-70
2020/12/01 00:07:45;;;;;;;50.43;26.20;;;0.70;99.90;;;;;;5079077;28;20213;-70
2020/12/01 00:10:13;;;;;;;57.27;27.00;;;0.70;99.90;;;;;;5082753;28;20248;-70
2020/12/01 00:12:40;;;;;;;50.43;26.37;;;0.70;99.90;;;;;;5091065;28;20315;-70
2020/12/01 00:15:07;;;;;;;52.63;26.33;;;0.60;99.90;;;;;;5086716;28;20200;-70
2020/12/01 00:17:34;;;;;;;54.07;28.57;;;0.70;99.90;;;;;;5084140;28;20239;-71
2020/12/01 00:20:01;;;;;;;53.63;26.90;;;0.70;99.90;;;;;;5067398;28;20202;-69
2020/12/01 00:22:27;;;;;;;51.70;27.63;;;0.70;99.90;;;;;;5090123;28;20255;-70
2020/12/01 00:24:54;;;;;;;54.83;27.90;;;0.70;99.90;;;;;;5091367;28;20645;-69
2020/12/01 00:27:21;;;;;;;53.43;26.10;;;0.70;99.90;;;;;;5079305;28;20701;-70
2020/12/01 00:29:47;;;;;;;50.70;26.67;;;0.80;99.90;;;;;;5069698;28;20259;-69
2020/12/01 00:32:14;;;;;;;53.60;28.10;;;0.80;99.90;;;;;;5084350;28;20206;-70
2020/12/01 00:34:40;;;;;;;51.17;27.80;;;0.80;99.90;;;;;;5071710;28;20241;-70
2020/12/01 00:37:06;;;;;;;58.37;27.63;;;0.80;99.90;;;;;;5072406;28;20209;-69
2020/12/01 00:39:33;;;;;;;55.70;29.27;;;0.90;99.90;;;;;;5070426;28;20247;-70
2020/12/01 00:42:00;;;;;;;65.70;29.57;;;0.90;99.90;;;;;;5071339;28;20237;-70
2020/12/01 00:44:27;;;;;;;61.23;29.93;;;0.90;99.90;;;;;;5069934;28;20251;-69
2020/12/01 00:46:53;;;;;;;59.33;30.37;;;0.90;99.90;;;;;;5071732;28;20627;-70
2020/12/01 00:49:20;;;;;;;58.20;31.17;;;0.90;99.90;;;;;;5058073;28;20209;-69
2020/12/01 00:51:48;;;;;;;58.50;29.83;;;0.90;99.90;;;;;;5071476;28;20296;-69
2020/12/01 00:54:15;;;;;;;55.27;29.97;;;0.90;99.90;;;;;;5075096;28;20241;-69
2020/12/01 00:56:41;;;;;;;61.97;29.47;;;0.90;99.90;;;;;;5076129;28;20244;-68
2020/12/01 00:59:09;;;;;;;59.80;30.10;;;0.90;99.90;;;;;;5076468;28;20320;-69
2020/12/01 01:01:35;;;;;;;65.00;31.93;;;0.90;99.90;;;;;;5075847;28;20300;-69
2020/12/01 01:04:02;;;;;;;58.03;30.17;;;0.90;99.90;;;;;;5076038;28;20205;-70
2020/12/01 01:06:28;;;;;;;58.23;31.37;;;1.00;99.90;;;;;;5075719;28;20340;-69
2020/12/01 01:08:55;;;;;;;59.17;33.50;;;1.00;99.90;;;;;;5076703;28;20201;-70
2020/12/01 01:11:28;;;;;;;71.53;33.50;;;1.00;99.90;;;;;;5070760;28;20291;-70
2020/12/01 01:13:54;;;;;;;63.83;30.93;;;1.00;99.90;;;;;;5073711;28;20237;-70
2020/12/01 01:16:24;;;;;;;67.03;32.80;;;1.00;99.90;;;;;;5076550;28;20233;-70
2020/12/01 01:18:51;;;;;;;60.07;31.03;;;1.10;99.90;;;;;;5076226;28;20201;-70
2020/12/01 01:21:18;;;;;;;60.13;31.80;;;1.10;99.90;;;;;;5075425;28;20654;-71
2020/12/01 01:23:44;;;;;;;74.30;35.27;;;1.00;99.90;;;;;;5076332;28;20236;-69
2020/12/01 01:26:11;;;;;;;68.00;32.37;;;1.00;99.90;;;;;;5084567;28;20225;-70
2020/12/01 01:28:38;;;;;;;66.00;31.70;;;0.90;99.90;;;;;;5079098;28;20256;-70
2020/12/01 01:31:04;;;;;;;61.13;30.90;;;0.90;99.90;;;;;;5075473;28;20236;-70
2020/12/01 01:33:31;;;;;;;67.50;33.57;;;0.80;99.90;;;;;;5069990;28;20212;-70
2020/12/01 01:35:58;;;;;;;65.43;31.80;;;0.80;99.90;;;;;;5075081;28;20205;-69
2020/12/01 01:38:25;;;;;;;64.97;31.00;;;0.70;99.90;;;;;;5074843;28;20209;-70
2020/12/01 01:40:56;;;;;;;69.17;33.57;;;0.70;99.90;;;;;;5078673;28;20296;-69
2020/12/01 01:43:23;;;;;;;68.77;33.20;;;0.70;99.90;;;;;;5079744;28;20205;-70
2020/12/01 01:45:51;;;;;;;64.27;32.07;;;0.60;99.90;;;;;;5079656;28;20244;-70
2020/12/01 01:48:28;;;;;;;64.43;30.67;;;0.60;99.90;;;;;;5074998;28;20209;-69
2020/12/01 01:51:01;;;;;;;66.00;32.30;;;0.50;99.90;;;;;;5078077;28;20292;-70
2020/12/01 01:53:30;;;;;;;66.30;32.67;;;0.50;99.90;;;;;;5077818;28;20215;-69
2020/12/01 01:56:05;;;;;;;71.37;33.40;;;0.50;99.90;;;;;;5080230;28;20628;-69
2020/12/01 01:58:36;;;;;;;70.63;34.17;;;0.50;99.90;;;;;;5078496;28;20898;-69
2020/12/01 02:01:08;;;;;;;71.43;33.77;;;0.50;99.90;;;;;;5080204;28;20669;-69
2020/12/01 02:03:40;;;;;;;66.13;33.23;;;0.50;99.90;;;;;;5079027;28;20225;-69
2020/12/01 02:06:16;;;;;;;63.40;32.20;;;0.50;99.90;;;;;;5079445;28;20236;-70
2020/12/01 02:08:47;;;;;;;62.00;30.20;;;0.40;99.90;;;;;;5074396;28;20197;-69
2020/12/01 02:11:14;;;;;;;68.07;33.47;;;0.40;99.90;;;;;;5073466;28;20226;-70
2020/12/01 02:13:47;;;;;;;61.20;32.77;;;0.40;99.90;;;;;;5079649;28;20240;-69
2020/12/01 02:16:13;;;;;;;73.87;33.10;;;0.40;99.90;;;;;;5063610;28;20293;-70
2020/12/01 02:18:39;;;;;;;63.00;32.13;;;0.50;99.90;;;;;;5077550;28;20271;-70
2020/12/01 02:21:27;;;;;;;67.10;32.27;;;0.50;99.90;;;;;;5065427;28;20338;-71
2020/12/01 02:23:55;;;;;;;67.87;32.97;;;0.60;99.90;;;;;;5073834;28;20623;-71
2020/12/01 02:26:22;;;;;;;69.10;32.60;;;0.60;99.90;;;;;;5076763;28;20299;-69
2020/12/01 02:28:48;;;;;;;72.27;33.00;;;0.60;99.90;;;;;;5078114;28;20244;-70
2020/12/01 02:31:15;;;;;;;65.10;33.67;;;0.60;99.90;;;;;;5077726;28;20205;-70
2020/12/01 02:33:41;;;;;;;69.70;31.90;;;0.60;99.90;;;;;;5077642;28;20245;-70
2020/12/01 02:36:08;;;;;;;64.70;32.10;;;0.60;99.90;;;;;;5071794;28;20247;-69
2020/12/01 02:38:34;;;;;;;65.83;32.23;;;0.70;99.90;;;;;;5072864;28;20338;-69
2020/12/01 02:41:01;;;;;;;62.27;31.43;;;0.70;99.90;;;;;;5073677;28;20233;-70
2020/12/01 02:43:28;;;;;;;66.57;32.07;;;0.70;99.90;;;;;;5073613;28;20233;-70
2020/12/01 02:45:55;;;;;;;66.27;31.43;;;0.80;99.90;;;;;;5073911;28;20312;-70
2020/12/01 02:48:21;;;;;;;63.60;30.50;;;0.80;99.90;;;;;;5073900;28;20288;-70
2020/12/01 02:50:48;;;;;;;63.90;31.27;;;0.80;99.90;;;;;;5074120;28;20275;-70
2020/12/01 02:53:14;;;;;;;62.73;31.27;;;0.90;99.90;;;;;;5075010;28;20232;-71
2020/12/01 02:55:40;;;;;;;63.13;31.90;;;0.80;99.90;;;;;;5084192;28;20306;-70
2020/12/01 02:58:07;;;;;;;59.23;30.23;;;0.90;99.90;;;;;;5088551;28;20212;-70
2020/12/01 03:00:34;;;;;;;62.80;30.93;;;0.90;99.90;;;;;;5082583;28;20260;-70
2020/12/01 03:03:01;;;;;;;61.60;31.50;;;0.80;99.90;;;;;;5079078;28;20593;-69
2020/12/01 03:05:27;;;;;;;60.67;30.33;;;0.80;99.90;;;;;;5085100;28;20244;-69
2020/12/01 03:07:54;;;;;;;57.40;29.63;;;0.90;99.90;;;;;;5085417;28;20700;-71
2020/12/01 03:10:20;;;;;;;61.63;31.20;;;0.80;99.90;;;;;;5079542;28;20220;-70
2020/12/01 03:12:47;;;;;;;67.37;31.80;;;0.80;99.90;;;;;;5092021;28;20228;-70
2020/12/01 03:15:15;;;;;;;64.87;32.83;;;0.80;99.90;;;;;;5086034;28;20304;-71
2020/12/01 03:17:42;;;;;;;67.80;33.07;;;0.80;99.90;;;;;;5088999;28;20207;-70
2020/12/01 03:20:10;;;;;;;65.83;31.53;;;0.80;99.90;;;;;;5088088;28;20296;-69
2020/12/01 03:22:37;;;;;;;66.33;31.73;;;0.80;99.90;;;;;;5083865;28;20704;-69
2020/12/01 03:25:03;;;;;;;61.87;31.67;;;0.80;99.90;;;;;;5083505;28;20240;-69
2020/12/01 03:27:30;;;;;;;64.53;30.87;;;0.80;99.90;;;;;;5069941;28;20226;-69
2020/12/01 03:29:56;;;;;;;57.73;31.20;;;0.70;99.90;;;;;;5081965;28;20652;-69
2020/12/01 03:32:24;;;;;;;63.67;32.90;;;0.70;99.90;;;;;;5073684;28;20262;-69
2020/12/01 03:34:52;;;;;;;64.17;32.53;;;0.70;99.90;;;;;;5081938;28;20688;-69
2020/12/01 03:37:18;;;;;;;61.07;31.07;;;0.60;99.90;;;;;;5080391;28;20586;-69
2020/12/01 03:39:45;;;;;;;62.57;32.00;;;0.70;99.90;;;;;;5072186;28;20229;-69
2020/12/01 03:42:11;;;;;;;60.40;30.70;;;0.60;99.90;;;;;;5078838;28;20293;-70
2020/12/01 03:44:38;;;;;;;61.47;31.57;;;0.60;99.90;;;;;;5086740;28;20550;-70
2020/12/01 03:47:04;;;;;;;62.93;31.57;;;0.60;99.90;;;;;;5080779;28;20315;-69
2020/12/01 03:49:31;;;;;;;66.87;31.40;;;0.50;99.90;;;;;;5074719;28;20333;-69
2020/12/01 03:51:58;;;;;;;60.67;30.60;;;0.50;99.90;;;;;;5083565;28;20205;-69
2020/12/01 03:54:25;;;;;;;61.73;31.97;;;0.50;99.90;;;;;;5088608;28;20254;-69
2020/12/01 03:56:51;;;;;;;60.57;30.53;;;0.50;99.90;;;;;;5074015;28;20266;-70
2020/12/01 03:59:18;;;;;;;59.10;30.93;;;0.60;99.90;;;;;;5071138;28;20244;-70
2020/12/01 04:01:44;;;;;;;62.27;32.57;;;0.50;99.90;;;;;;5077370;28;20725;-68
2020/12/01 04:04:11;;;;;;;63.90;30.93;;;0.50;99.90;;;;;;5071454;28;20213;-69
2020/12/01 04:06:37;;;;;;;55.10;29.90;;;0.50;99.90;;;;;;5076829;28;20277;-69
2020/12/01 04:09:05;;;;;;;59.67;29.80;;;0.50;99.90;;;;;;5071233;28;20283;-70
2020/12/01 04:11:31;;;;;;;60.80;31.23;;;0.40;99.90;;;;;;5082754;28;20265;-70
2020/12/01 04:13:58;;;;;;;63.40;28.50;;;0.40;99.90;;;;;;5078593;28;20614;-69
2020/12/01 04:16:24;;;;;;;56.77;28.47;;;0.40;99.90;;;;;;5082909;28;20233;-70
2020/12/01 04:18:51;;;;;;;56.77;30.10;;;0.30;99.90;;;;;;5080616;28;20205;-69
2020/12/01 04:21:17;;;;;;;59.67;30.53;;;0.40;99.90;;;;;;5081257;28;20236;-68
2020/12/01 04:23:44;;;;;;;56.33;28.60;;;0.30;99.90;;;;;;5076826;28;20303;-70
2020/12/01 04:26:11;;;;;;;62.27;29.70;;;0.20;99.90;;;;;;5071449;28;20275;-69
2020/12/01 04:28:38;;;;;;;61.37;28.93;;;0.20;99.90;;;;;;5085819;28;20236;-70
2020/12/01 04:31:04;;;;;;;61.40;27.53;;;0.20;99.90;;;;;;5077682;28;20244;-69
2020/12/01 04:33:30;;;;;;;56.53;28.33;;;0.20;99.90;;;;;;5086720;28;20646;-69
2020/12/01 04:35:57;;;;;;;55.23;29.07;;;0.20;99.90;;;;;;5081562;28;20665;-69
2020/12/01 04:38:24;;;;;;;65.57;29.37;;;0.20;99.90;;;;;;5083450;28;20302;-71
2020/12/01 04:40:50;;;;;;;56.90;28.97;;;0.10;99.90;;;;;;5086407;28;20204;-69
2020/12/01 04:43:30;;;;;;;55.50;29.90;;;0.20;99.90;;;;;;5078941;28;20213;-69
2020/12/01 04:45:56;;;;;;;60.00;30.47;;;0.10;99.90;;;;;;5083529;28;20260;-69
2020/12/01 04:48:32;;;;;;;59.97;29.57;;;0.10;99.90;;;;;;5091212;28;20251;-69
2020/12/01 04:51:03;;;;;;;58.80;29.33;;;0.10;99.90;;;;;;5081267;28;20661;-70
2020/12/01 04:53:45;;;;;;;57.97;27.47;;;0.00;99.90;;;;;;5073719;28;20220;-68
2020/12/01 04:56:40;;;;;;;53.67;28.27;;;0.00;99.90;;;;;;5087078;28;20242;-69
2020/12/01 04:59:29;;;;;;;64.37;28.17;;;-0.10;99.90;;;;;;5068131;28;20251;-69
2020/12/01 05:02:24;;;;;;;57.60;29.87;;;-0.10;99.90;;;;;;5089919;28;20212;-69
2020/12/01 05:05:16;;;;;;;59.73;29.13;;;-0.10;99.90;;;;;;5080428;28;20755;-69
2020/12/01 05:07:58;;;;;;;61.93;27.73;;;-0.20;99.90;;;;;;5072707;28;20844;-69
2020/12/01 05:10:26;;;;;;;61.70;29.73;;;-0.20;99.90;;;;;;5083066;28;20201;-68
2020/12/01 05:12:58;;;;;;;67.10;32.10;;;-0.20;99.90;;;;;;5086284;28;20226;-69
2020/12/01 05:15:33;;;;;;;70.83;33.07;;;-0.30;99.90;;;;;;5085388;28;20208;-68
2020/12/01 05:18:15;;;;;;;67.07;30.30;;;-0.30;99.90;;;;;;5087249;28;20204;-68
2020/12/01 05:20:46;;;;;;;59.33;29.67;;;-0.30;99.90;;;;;;5078666;28;20204;-69
2020/12/01 05:23:14;;;;;;;65.50;30.27;;;-0.40;99.90;;;;;;5083332;28;20240;-68
2020/12/01 05:25:41;;;;;;;64.17;29.33;;;-0.40;99.90;;;;;;5076724;28;20220;-68
2020/12/01 05:28:11;;;;;;;69.37;29.33;;;-0.50;99.90;;;;;;5083187;28;20678;-69
2020/12/01 05:30:39;;;;;;;60.30;30.10;;;-0.40;99.90;;;;;;5070762;28;20205;-69
2020/12/01 05:33:18;;;;;;;60.53;30.60;;;-0.50;99.90;;;;;;5076184;28;20239;-69
2020/12/01 05:35:55;;;;;;;65.17;32.23;;;-0.50;99.90;;;;;;5070765;28;20700;-68
2020/12/01 05:38:22;;;;;;;64.37;30.53;;;-0.50;99.90;;;;;;5071581;28;20642;-69
2020/12/01 05:40:51;;;;;;;69.50;30.93;;;-0.50;99.90;;;;;;5084133;28;20266;-69
2020/12/01 05:43:29;;;;;;;59.10;29.10;;;-0.60;99.90;;;;;;5082073;28;20205;-69
2020/12/01 05:46:12;;;;;;;60.53;29.37;;;-0.40;99.90;;;;;;5084088;28;20236;-69
2020/12/01 05:48:53;;;;;;;60.13;29.50;;;-0.50;99.90;;;;;;5085948;28;20224;-70
2020/12/01 05:51:25;;;;;;;66.73;32.20;;;-0.50;99.90;;;;;;5077531;28;20209;-70
2020/12/01 05:53:57;;;;;;;61.27;30.37;;;-0.60;99.90;;;;;;5086288;28;20205;-69
2020/12/01 05:56:23;;;;;;;58.17;29.00;;;-0.60;99.90;;;;;;5088938;28;20205;-69
2020/12/01 05:58:57;;;;;;;59.33;28.43;;;-0.60;99.90;;;;;;5074777;28;20240;-69
2020/12/01 06:01:25;;;;;;;60.67;30.23;;;-0.60;99.90;;;;;;5077737;28;20243;-70
2020/12/01 06:04:06;;;;;;;63.10;31.57;;;-0.60;99.90;;;;;;5073536;28;20245;-69
2020/12/01 06:06:50;;;;;;;65.17;31.43;;;-0.70;99.90;;;;;;5081488;28;20705;-69
2020/12/01 06:09:28;;;;;;;60.60;31.17;;;-0.70;99.90;;;;;;5082737;28;20251;-69
2020/12/01 06:12:02;;;;;;;62.33;31.33;;;-0.70;99.90;;;;;;5074192;28;20681;-69
2020/12/01 06:14:36;;;;;;;67.37;31.17;;;-0.70;99.90;;;;;;5083470;28;20228;-68
2020/12/01 06:17:12;;;;;;;66.93;31.53;;;-0.70;99.90;;;;;;5087182;28;20271;-70
2020/12/01 06:19:46;;;;;;;67.17;32.00;;;-0.70;99.90;;;;;;5073139;28;20334;-69
2020/12/01 06:22:48;;;;;;;64.70;31.03;;;-0.70;99.90;;;;;;5078427;28;20295;-69
2020/12/01 06:25:29;;;;;;;63.73;30.27;;;-0.70;99.90;;;;;;5084741;28;20326;-69
2020/12/01 06:28:36;;;;;;;62.43;32.40;;;-0.80;99.90;;;;;;5077129;28;20244;-69
2020/12/01 06:31:21;;;;;;;59.27;29.60;;;-0.80;99.90;;;;;;5065020;28;20299;-69
2020/12/01 06:34:22;;;;;;;59.37;29.20;;;-0.80;99.90;;;;;;5087678;28;20236;-69
2020/12/01 06:37:13;;;;;;;63.53;30.53;;;-0.80;99.90;;;;;;5071292;28;20617;-70
2020/12/01 06:39:49;;;;;;;55.10;27.33;;;-0.80;99.90;;;;;;5076680;28;20283;-69
2020/12/01 06:42:21;;;;;;;57.67;29.87;;;-0.80;99.90;;;;;;5072177;28;20240;-68
2020/12/01 06:44:55;;;;;;;56.70;30.57;;;-0.80;99.90;;;;;;5070345;28;20235;-69
2020/12/01 06:47:27;;;;;;;55.60;27.53;;;-0.70;99.90;;;;;;5072769;28;20522;-70
2020/12/01 06:49:59;;;;;;;55.77;28.30;;;-0.70;99.90;;;;;;5080517;28;20644;-72
2020/12/01 06:52:26;;;;;;;54.87;27.17;;;-0.70;99.90;;;;;;5071893;28;20198;-70
2020/12/01 06:54:55;;;;;;;54.30;28.30;;;-0.70;99.90;;;;;;5073691;28;20216;-71
2020/12/01 06:57:29;;;;;;;58.20;29.03;;;-0.70;99.90;;;;;;5082045;28;20224;-70
2020/12/01 06:59:56;;;;;;;61.80;30.53;;;-0.70;99.90;;;;;;5073926;28;20202;-70
2020/12/01 07:02:29;;;;;;;53.63;27.53;;;-0.60;99.90;;;;;;5074598;28;20247;-76
2020/12/01 07:05:06;;;;;;;54.23;29.00;;;-0.60;99.90;;;;;;5083127;28;20251;-76
2020/12/01 07:07:34;;;;;;;54.47;24.70;;;-0.50;99.90;;;;;;5070024;28;20217;-72
2020/12/01 07:10:14;;;;;;;49.87;28.13;;;-0.50;99.90;;;;;;5072310;28;20262;-76
2020/12/01 07:12:47;;;;;;;55.03;26.73;;;-0.40;99.90;;;;;;5068339;28;20221;-75
2020/12/01 07:15:17;;;;;;;51.27;26.53;;;-0.40;99.90;;;;;;5083623;28;20205;-76
2020/12/01 07:17:52;;;;;;;51.90;24.07;;;-0.30;99.90;;;;;;5081234;28;20662;-76
2020/12/01 07:20:32;;;;;;;51.73;27.10;;;-0.30;99.90;;;;;;5075394;28;20254;-75
2020/12/01 07:23:10;;;;;;;51.87;25.17;;;-0.30;99.90;;;;;;5084436;28;20197;-73
2020/12/01 07:25:44;;;;;;;48.13;26.30;;;-0.20;99.90;;;;;;5070941;28;20252;-71
2020/12/01 07:28:24;;;;;;;53.07;26.53;;;-0.20;99.90;;;;;;5072815;28;20222;-76
2020/12/01 07:30:58;;;;;;;45.37;24.90;;;-0.10;99.90;;;;;;5076313;28;20633;-73
2020/12/01 07:33:28;;;;;;;50.70;24.90;;;0.00;99.90;;;;;;5092413;28;20196;-78
2020/12/01 07:36:11;;;;;;;47.63;25.87;;;0.00;99.90;;;;;;5073298;28;20254;-74
2020/12/01 07:38:41;;;;;;;49.50;24.67;;;0.00;99.90;;;;;;5073800;28;20228;-79
2020/12/01 07:41:23;;;;;;;52.00;26.30;;;0.10;99.90;;;;;;5080597;28;20657;-77
2020/12/01 07:44:03;;;;;;;44.30;25.10;;;0.10;99.90;;;;;;5073365;28;20205;-76
2020/12/01 07:46:30;;;;;;;51.13;23.97;;;0.30;99.90;;;;;;5080731;28;20273;-76
2020/12/01 07:48:59;;;;;;;43.53;24.63;;;0.30;99.90;;;;;;5080589;28;20252;-76
2020/12/01 07:51:29;;;;;;;49.50;25.63;;;0.40;99.90;;;;;;5077822;28;20215;-75
2020/12/01 07:53:57;;;;;;;51.13;24.97;;;0.50;99.90;;;;;;5068830;28;20727;-71
2020/12/01 07:56:27;;;;;;;42.50;24.27;;;0.50;99.90;;;;;;5076771;28;20310;-70
2020/12/01 07:59:06;;;;;;;46.53;24.83;;;0.60;99.90;;;;;;5070341;28;20715;-71
2020/12/01 08:01:33;;;;;;;43.83;24.17;;;0.70;99.90;;;;;;5070733;28;20292;-71
2020/12/01 08:04:10;;;;;;;47.73;22.53;;;0.80;99.90;;;;;;5076901;28;20562;-71
2020/12/01 08:06:37;;;;;;;45.33;23.13;;;1.00;99.90;;;;;;5073782;28;20268;-71
2020/12/01 08:09:11;;;;;;;48.97;25.07;;;1.00;99.90;;;;;;5079309;28;20205;-71
2020/12/01 08:11:43;;;;;;;44.97;22.97;;;1.10;99.90;;;;;;5077203;28;20247;-72
2020/12/01 08:14:11;;;;;;;43.43;23.30;;;1.30;99.90;;;;;;5083063;28;20244;-71
2020/12/01 08:16:38;;;;;;;42.50;23.13;;;1.50;99.90;;;;;;5087590;28;20637;-72
2020/12/01 08:19:06;;;;;;;41.30;22.60;;;1.60;99.90;;;;;;5081878;28;20217;-70
2020/12/01 08:21:36;;;;;;;41.30;23.03;;;1.80;99.90;;;;;;5072546;28;20258;-72
2020/12/01 08:24:08;;;;;;;45.07;22.37;;;1.90;99.90;;;;;;5081584;28;20211;-72
2020/12/01 08:26:37;;;;;;;41.67;23.60;;;2.10;99.90;;;;;;5073229;28;20675;-71
2020/12/01 08:29:12;;;;;;;39.33;21.00;;;2.20;99.90;;;;;;5069395;28;20247;-72
2020/12/01 08:31:48;;;;;;;40.60;20.43;;;2.50;99.90;;;;;;5066678;28;20207;-74
2020/12/01 08:34:33;;;;;;;35.47;20.63;;;3.20;99.90;;;;;;5069515;28;20602;-72
2020/12/01 08:37:18;;;;;;;40.73;22.93;;;4.30;99.90;;;;;;5084754;28;20197;-70
2020/12/01 08:39:54;;;;;;;38.73;23.03;;;5.70;99.90;;;;;;5067845;28;20611;-70
2020/12/01 08:42:31;;;;;;;39.40;25.07;;;7.20;99.90;;;;;;5071045;28;20237;-71
2020/12/01 08:45:19;;;;;;;40.83;24.33;;;8.60;99.90;;;;;;5068974;28;20241;-72
2020/12/01 08:47:47;;;;;;;37.90;21.93;;;10.00;97.70;;;;;;5066778;28;20333;-71
2020/12/01 08:50:16;;;;;;;36.73;22.67;;;11.40;90.10;;;;;;5071376;28;20206;-73
2020/12/01 08:52:46;;;;;;;38.07;22.30;;;12.30;80.30;;;;;;5064934;28;20216;-72
2020/12/01 08:55:25;;;;;;;34.50;21.23;;;13.20;73.30;;;;;;5067035;28;20220;-71
2020/12/01 08:58:04;;;;;;;42.73;22.00;;;14.00;67.00;;;;;;5069855;28;20725;-71
2020/12/01 09:00:33;;;;;;;32.97;22.47;;;14.80;60.30;;;;;;5072743;28;20236;-71
2020/12/01 09:03:11;;;;;;;34.43;21.80;;;15.30;57.00;;;;;;5082326;28;20221;-72
2020/12/01 09:05:47;;;;;;;32.23;21.63;;;15.80;54.60;;;;;;5071277;28;20252;-71
2020/12/01 09:11:26;;;;;;;33.40;22.00;;;17.00;51.20;;;;;;5066469;28;20287;-71
2020/12/01 09:13:58;;;;;;;31.27;21.47;;;17.50;48.30;;;;;;5080274;28;20211;-72
2020/12/01 09:16:34;;;;;;;37.83;22.73;;;18.00;47.20;;;;;;5083359;28;20193;-72
2020/12/01 09:19:22;;;;;;;29.70;21.97;;;18.20;45.60;;;;;;5074298;28;20206;-72
2020/12/01 09:21:52;;;;;;;32.77;23.07;;;18.50;44.20;;;;;;5070661;28;20209;-72
2020/12/01 09:24:23;;;;;;;31.03;21.80;;;18.60;43.50;;;;;;5090487;28;20189;-72
2020/12/01 09:27:02;;;;;;;34.07;22.80;;;18.70;43.10;;;;;;5079967;28;20213;-72
2020/12/01 09:29:28;;;;;;;32.57;22.73;;;19.10;42.70;;;;;;5074232;28;20254;-71
2020/12/01 09:31:55;;;;;;;32.90;22.60;;;19.30;41.90;;;;;;5076663;28;20261;-72
2020/12/01 09:34:22;;;;;;;34.83;23.70;;;19.60;41.30;;;;;;5083450;28;20205;-71
2020/12/01 09:36:55;;;;;;;37.63;23.55;;;20.00;40.80;;;;;;5080658;28;20208;-73
2020/12/01 09:39:21;;;;;;;29.23;21.45;;;20.40;40.20;;;;;;5085699;28;20240;-71
2020/12/01 09:41:56;;;;;;;28.45;21.63;;;20.80;39.00;;;;;;5084833;28;20745;-72
2020/12/01 09:44:42;;;;;;;30.10;21.98;;;20.60;37.90;;;;;;5072185;28;20294;-73
2020/12/01 09:47:12;;;;;;;34.45;23.42;;;20.50;38.10;;;;;;5076685;28;20274;-72
2020/12/01 09:49:40;;;;;;;27.50;20.42;;;20.70;38.00;;;;;;5085232;28;20292;-71
2020/12/01 09:52:10;;;;;;;32.55;21.13;;;20.80;37.50;;;;;;5090819;28;20710;-72
2020/12/01 09:54:40;;;;;;;30.13;21.92;;;21.00;37.20;;;;;;5085425;28;20208;-74
2020/12/01 09:57:13;;;;;;;31.90;21.75;;;21.10;36.80;;;;;;5072705;28;20205;-73
2020/12/01 09:59:52;;;;;;;29.20;21.10;;;21.10;36.70;;;;;;5082768;28;20201;-72
2020/12/01 10:08:01;;;;;;;32.13;20.83;;;21.40;36.00;;;;;;5071161;28;20753;-71
2020/12/01 10:10:58;;;;;;;28.90;20.63;;;21.60;35.70;;;;;;5089735;28;20538;-71
2020/12/01 10:13:40;;;;;;;27.27;19.30;;;21.90;35.00;;;;;;5072863;28;20220;-73
2020/12/01 10:35:31;;;;;;;25.40;19.73;;;24.80;31.40;;;;;;5012716;28;20207;-73
2020/12/01 10:38:00;;;;;;;28.80;20.05;;;24.80;30.30;;;;;;5055491;28;20730;-72
2020/12/01 10:40:27;;;;;;;23.60;19.63;;;24.50;31.00;;;;;;5081310;28;20240;-72
2020/12/01 10:42:54;;;;;;;26.90;20.05;;;24.70;31.00;;;;;;5068672;28;20217;-73
2020/12/01 10:45:22;;;;;;;30.58;19.90;;;25.10;30.70;;;;;;5075262;28;20543;-73
2020/12/01 10:47:48;;;;;;;27.52;19.13;;;25.60;30.20;;;;;;5070988;28;20240;-73
2020/12/01 10:50:17;;;;;;;25.80;19.35;;;26.00;29.60;;;;;;5078410;28;20232;-73
2020/12/01 10:52:46;;;;;;;21.63;17.23;;;26.20;29.50;;;;;;5076047;28;20299;-73
2020/12/01 10:55:21;;;;;;;25.00;18.85;;;26.50;29.00;;;;;;5075146;28;20674;-73
2020/12/01 10:57:48;;;;;;;24.77;18.48;;;26.40;28.90;;;;;;5080620;28;20540;-73
2020/12/01 11:00:14;;;;;;;27.17;18.13;;;26.50;28.60;;;;;;5083002;28;20207;-73
2020/12/01 11:02:41;;;;;;;28.80;18.70;;;26.30;28.50;;;;;;5071695;28;20213;-72
2020/12/01 11:05:11;;;;;;;22.23;16.90;;;26.40;28.80;;;;;;5072295;28;20721;-73
2020/12/01 11:07:38;;;;;;;25.10;19.30;;;26.60;28.40;;;;;;5070550;28;20229;-72
2020/12/01 11:10:05;;;;;;;26.40;17.80;;;26.90;28.00;;;;;;5076439;28;20283;-72
2020/12/01 11:12:33;;;;;;;24.50;18.55;;;27.00;28.40;;;;;;5075723;28;20309;-72
2020/12/01 11:14:59;;;;;;;23.90;17.63;;;27.50;27.60;;;;;;5074890;28;20205;-72
2020/12/01 11:17:26;;;;;;;23.38;18.13;;;27.40;27.60;;;;;;5075620;28;20580;-73
2020/12/01 11:19:53;;;;;;;25.70;16.77;;;27.50;27.60;;;;;;5079423;28;20255;-72
2020/12/01 11:22:19;;;;;;;23.27;17.55;;;27.40;27.60;;;;;;5072771;28;20213;-71
2020/12/01 11:24:46;;;;;;;20.65;16.40;;;27.40;27.40;;;;;;5075422;28;20282;-73
2020/12/01 11:27:13;;;;;;;25.58;17.77;;;27.60;27.20;;;;;;5075677;28;20701;-72
2020/12/01 11:29:40;;;;;;;23.17;16.25;;;27.00;26.40;;;;;;5079133;28;20658;-72
2020/12/01 11:32:06;;;;;;;21.02;16.38;;;24.80;26.50;;;;;;5083883;28;20615;-72
2020/12/01 11:34:33;;;;;;;21.25;16.95;;;21.70;28.10;;;;;;5070977;28;20244;-72
2020/12/01 11:37:00;;;;;;;22.35;16.77;;;18.60;30.10;;;;;;5068774;28;20298;-73
2020/12/01 11:39:26;;;;;;;25.43;16.13;;;15.80;33.40;;;;;;5072587;28;20205;-73
2020/12/01 11:41:53;;;;;;;23.57;15.43;;;13.80;36.40;;;;;;5085339;28;20266;-74
2020/12/01 11:44:19;;;;;;;26.83;15.63;;;12.30;38.90;;;;;;5073661;28;20262;-72
2020/12/01 11:46:47;;;;;;;22.30;15.13;;;11.10;41.30;;;;;;5074540;28;20254;-72
2020/12/01 11:49:14;;;;;;;23.27;14.60;;;9.90;44.20;;;;;;5085577;28;20203;-72
2020/12/01 11:51:41;;;;;;;20.90;13.37;;;9.00;46.20;;;;;;5074015;28;20578;-73
2020/12/01 11:54:10;;;;;;;25.77;15.17;;;8.30;48.10;;;;;;5082911;28;20205;-72
2020/12/01 11:56:37;;;;;;;26.07;14.83;;;7.70;49.30;;;;;;5082728;28;20275;-72
2020/12/01 11:59:04;;;;;;;21.17;13.40;;;7.30;50.60;;;;;;5074985;28;20213;-72
2020/12/01 12:01:30;;;;;;;21.03;12.90;;;6.80;51.40;;;;;;5078160;28;20209;-72
2020/12/01 12:03:58;;;;;;;21.47;13.53;;;6.50;52.40;;;;;;5072707;28;20209;-72
2020/12/01 12:06:24;;;;;;;23.17;14.00;;;6.20;53.20;;;;;;5086451;28;20250;-72
2020/12/01 12:08:51;;;;;;;25.57;13.37;;;5.90;54.40;;;;;;5083833;28;20232;-73
2020/12/01 12:11:18;;;;;;;22.50;12.53;;;5.60;55.30;;;;;;5072201;28;20217;-72
2020/12/01 12:13:46;;;;;;;21.60;12.07;;;5.40;56.00;;;;;;5075584;28;20208;-72
2020/12/01 12:16:13;;;;;;;22.97;12.77;;;5.20;56.80;;;;;;5076723;28;20221;-72
2020/12/01 12:18:40;;;;;;;19.77;11.97;;;4.90;57.40;;;;;;5084248;28;20228;-71
2020/12/01 12:21:07;;;;;;;21.90;11.83;;;4.80;58.20;;;;;;5069674;28;20200;-73
2020/12/01 12:23:34;;;;;;;22.60;13.37;;;4.60;59.00;;;;;;5089117;28;20205;-72
2020/12/01 12:26:00;;;;;;;28.17;14.33;;;4.40;59.60;;;;;;5071643;28;20258;-71
2020/12/01 12:28:27;;;;;;;21.67;12.67;;;4.30;60.30;;;;;;5078255;28;20236;-71
2020/12/01 12:30:54;;;;;;;19.27;12.23;;;4.20;61.40;;;;;;5076733;28;20204;-72
2020/12/01 12:33:21;;;;;;;22.87;13.20;;;4.10;62.20;;;;;;5072234;28;20255;-72
2020/12/01 12:35:51;;;;;;;23.53;12.93;;;4.00;63.00;;;;;;5072984;28;20716;-72
2020/12/01 12:38:19;;;;;;;22.53;12.40;;;3.90;63.40;;;;;;5072785;28;20610;-72
2020/12/01 12:40:47;;;;;;;20.70;12.30;;;3.80;63.80;;;;;;5072867;28;20650;-72
2020/12/01 12:43:14;;;;;;;21.47;11.77;;;3.80;64.40;;;;;;5067412;28;20563;-73
2020/12/01 12:45:41;;;;;;;15.60;10.40;;;3.70;64.60;;;;;;5073014;28;20244;-72
2020/12/01 12:48:08;;;;;;;20.00;11.53;;;3.60;65.00;;;;;;5076839;28;20259;-73
2020/12/01 12:50:34;;;;;;;19.57;11.73;;;3.60;65.30;;;;;;5080379;28;20205;-73
2020/12/01 12:53:01;;;;;;;18.10;10.40;;;3.50;65.90;;;;;;5076351;28;20205;-73
2020/12/01 12:55:28;;;;;;;18.03;11.60;;;3.50;66.40;;;;;;5081595;28;20259;-73
2020/12/01 12:57:58;;;;;;;19.57;11.47;;;3.40;66.90;;;;;;5082374;28;20205;-72
2020/12/01 13:00:25;;;;;;;19.43;11.53;;;3.40;67.70;;;;;;5090776;28;20265;-72
2020/12/01 13:02:52;;;;;;;21.07;11.73;;;3.40;68.50;;;;;;5087039;28;20231;-75
2020/12/01 13:05:19;;;;;;;20.97;12.07;;;3.40;69.30;;;;;;5089711;28;20306;-74
2020/12/01 13:07:46;;;;;;;22.50;11.70;;;3.30;69.20;;;;;;5095306;28;20590;-74
2020/12/01 13:10:12;;;;;;;18.97;11.47;;;3.30;70.30;;;;;;5098200;28;20233;-72
2020/12/01 13:12:40;;;;;;;19.77;11.07;;;3.20;71.00;;;;;;5087118;28;20217;-72
2020/12/01 13:15:07;;;;;;;19.20;11.00;;;3.20;71.70;;;;;;5089828;28;20209;-72
2020/12/01 13:17:34;;;;;;;17.30;10.40;;;3.10;72.30;;;;;;5088429;28;20246;-71